createdAt,value
2023-01-25T00:00:24.894Z,24.92
2023-01-25T00:02:52.571Z,15.43
2023-01-25T00:05:20.173Z,22.77
2023-01-25T00:07:47.956Z,17.65
2023-01-25T00:10:15.754Z,19.60
2023-01-25T00:12:43.356Z,19.23
2023-01-25T00:15:12.034Z,17.98
2023-01-25T00:17:41.082Z,20.08
2023-01-25T00:20:10.137Z,18.38
2023-01-25T00:22:37.801Z,25.67
2023-01-25T00:25:06.469Z,21.55
2023-01-25T00:27:34.265Z,24.13
2023-01-25T00:30:01.863Z,22.80
2023-01-25T00:32:34.935Z,23.23
2023-01-25T00:35:04.036Z,23.13
2023-01-25T00:37:37.657Z,25.55
2023-01-25T00:40:06.848Z,18.88
2023-01-25T00:42:34.525Z,15.07
2023-01-25T00:45:02.163Z,20.00
2023-01-25T00:47:30.159Z,20.60
2023-01-25T00:49:57.783Z,18.23
2023-01-25T00:52:28.585Z,22.15
2023-01-25T00:54:57.075Z,21.02
2023-01-25T00:57:24.751Z,21.52
2023-01-25T00:59:52.333Z,22.38
2023-01-25T01:02:19.969Z,25.90
2023-01-25T01:04:47.711Z,26.60
2023-01-25T01:07:16.050Z,24.23
2023-01-25T01:09:45.006Z,28.10
2023-01-25T01:12:12.645Z,24.75
2023-01-25T01:14:40.349Z,32.15
2023-01-25T01:17:07.995Z,29.73
2023-01-25T01:19:35.864Z,27.45
2023-01-25T01:22:03.545Z,26.35
2023-01-25T01:24:31.220Z,24.45
2023-01-25T01:27:00.186Z,25.65
2023-01-25T01:29:27.778Z,26.02
2023-01-25T01:31:56.361Z,28.00
2023-01-25T01:34:24.060Z,26.38
2023-01-25T01:36:52.129Z,25.67
2023-01-25T01:39:19.774Z,27.77
2023-01-25T01:41:47.452Z,32.45
2023-01-25T01:44:18.878Z,29.25
2023-01-25T01:46:50.472Z,26.08
2023-01-25T01:49:21.302Z,24.27
2023-01-25T01:51:51.446Z,30.02
2023-01-25T01:54:24.155Z,23.67
2023-01-25T01:56:55.636Z,27.95
2023-01-25T01:59:27.514Z,25.88
2023-01-25T02:01:55.660Z,30.27
2023-01-25T02:04:24.175Z,30.98
2023-01-25T02:06:54.899Z,28.17
2023-01-25T02:09:24.957Z,29.52
2023-01-25T02:11:53.367Z,30.13
2023-01-25T02:14:21.617Z,31.23
2023-01-25T02:16:50.636Z,29.92
2023-01-25T02:19:25.599Z,29.98
2023-01-25T02:21:54.486Z,28.38
2023-01-25T02:24:25.306Z,29.00
2023-01-25T02:26:54.588Z,33.33
2023-01-25T02:29:24.119Z,28.60
2023-01-25T02:31:53.713Z,23.98
2023-01-25T02:34:21.431Z,29.58
2023-01-25T02:36:49.037Z,24.42
2023-01-25T02:39:20.052Z,27.20
2023-01-25T02:41:48.964Z,23.98
2023-01-25T02:44:19.767Z,27.15
2023-01-25T02:46:47.911Z,27.17
2023-01-25T02:49:16.690Z,25.38
2023-01-25T02:51:46.068Z,35.15
2023-01-25T02:54:15.139Z,26.13
2023-01-25T02:56:42.768Z,28.65
2023-01-25T02:59:10.506Z,23.70
2023-01-25T03:01:40.747Z,19.65
2023-01-25T03:04:08.923Z,22.20
2023-01-25T03:06:36.864Z,22.08
2023-01-25T03:09:05.002Z,20.83
2023-01-25T03:11:32.921Z,26.20
2023-01-25T03:14:00.556Z,21.35
2023-01-25T03:16:28.245Z,25.00
2023-01-25T03:18:57.362Z,27.10
2023-01-25T03:21:25.461Z,24.13
2023-01-25T03:23:57.330Z,23.00
2023-01-25T03:26:26.378Z,22.27
2023-01-25T03:28:54.049Z,26.60
2023-01-25T03:31:21.852Z,24.23
2023-01-25T03:33:49.835Z,23.75
2023-01-25T03:36:18.949Z,27.98
2023-01-25T03:38:46.600Z,27.08
2023-01-25T03:41:14.990Z,21.88
2023-01-25T03:43:42.605Z,24.20
2023-01-25T03:46:10.323Z,24.05
2023-01-25T03:48:37.946Z,23.02
2023-01-25T03:51:05.704Z,22.50
2023-01-25T03:53:34.706Z,23.02
2023-01-25T03:56:04.191Z,24.27
2023-01-25T03:58:32.201Z,23.20
2023-01-25T04:01:02.457Z,23.95
2023-01-25T04:03:31.423Z,28.88
2023-01-25T04:05:59.722Z,23.05
2023-01-25T04:08:27.429Z,19.92
2023-01-25T04:10:57.734Z,17.58
2023-01-25T04:13:27.045Z,21.02
2023-01-25T04:15:55.260Z,17.00
2023-01-25T04:18:22.996Z,16.25
2023-01-25T04:20:53.579Z,17.40
2023-01-25T04:23:21.253Z,18.85
2023-01-25T04:25:53.848Z,21.48
2023-01-25T04:28:23.100Z,17.88
2023-01-25T04:30:51.132Z,17.95
2023-01-25T04:33:18.792Z,18.23
2023-01-25T04:35:46.499Z,24.88
2023-01-25T04:38:14.286Z,19.92
2023-01-25T04:40:45.395Z,19.55
2023-01-25T04:43:14.496Z,26.53
2023-01-25T04:45:43.860Z,22.48
2023-01-25T04:48:13.066Z,25.20
2023-01-25T04:50:41.564Z,17.35
2023-01-25T04:53:10.027Z,20.42
2023-01-25T04:55:37.756Z,19.88
2023-01-25T04:58:05.394Z,15.13
2023-01-25T05:00:33.264Z,14.60
2023-01-25T05:03:02.267Z,13.82
2023-01-25T05:05:30.078Z,13.80
2023-01-25T05:07:57.754Z,15.60
2023-01-25T05:10:25.467Z,16.98
2023-01-25T05:12:53.069Z,12.70
2023-01-25T05:15:20.714Z,12.85
2023-01-25T05:17:48.394Z,15.57
2023-01-25T05:20:17.773Z,14.95
2023-01-25T05:22:45.495Z,17.83
2023-01-25T05:25:27.089Z,15.48
2023-01-25T05:27:54.785Z,11.45
2023-01-25T05:30:22.417Z,15.23
2023-01-25T05:32:53.167Z,13.98
2023-01-25T05:35:22.163Z,16.02
2023-01-25T05:37:50.395Z,17.70
2023-01-25T05:40:18.366Z,17.10
2023-01-25T05:42:46.039Z,15.52
2023-01-25T05:45:13.647Z,17.77
2023-01-25T05:47:41.203Z,19.38
2023-01-25T05:50:09.845Z,15.93
2023-01-25T05:52:39.367Z,13.65
2023-01-25T05:55:08.167Z,15.90
2023-01-25T05:57:35.996Z,15.10
2023-01-25T06:00:04.508Z,16.35
2023-01-25T06:02:32.436Z,15.57
2023-01-25T06:05:00.118Z,19.67
2023-01-25T06:07:27.825Z,20.17
2023-01-25T06:09:56.742Z,14.57
2023-01-25T06:12:24.490Z,15.85
2023-01-25T06:14:52.138Z,14.50
2023-01-25T06:17:19.829Z,20.95
2023-01-25T06:19:47.426Z,21.33
2023-01-25T06:22:15.108Z,15.38
2023-01-25T06:24:42.710Z,16.15
2023-01-25T06:27:12.740Z,14.70
2023-01-25T06:29:40.413Z,17.52
2023-01-25T06:32:08.112Z,19.23
2023-01-25T06:34:35.732Z,17.67
2023-01-25T06:37:03.388Z,18.70
2023-01-25T06:39:30.997Z,13.70
2023-01-25T06:41:58.594Z,14.57
2023-01-25T06:44:27.730Z,13.88
2023-01-25T06:46:55.427Z,14.35
2023-01-25T06:49:23.139Z,14.55
2023-01-25T06:51:50.760Z,17.70
2023-01-25T06:54:18.438Z,19.50
2023-01-25T06:56:46.195Z,17.48
2023-01-25T06:59:13.987Z,22.00
2023-01-25T07:01:42.995Z,19.60
2023-01-25T07:04:12.342Z,22.02
2023-01-25T07:06:40.546Z,15.00
2023-01-25T07:09:09.947Z,14.68
2023-01-25T07:11:38.024Z,15.68
2023-01-25T07:14:06.707Z,19.13
2023-01-25T07:16:38.430Z,12.52
2023-01-25T07:19:08.300Z,16.50
2023-01-25T07:21:35.931Z,16.42
2023-01-25T07:24:05.495Z,17.20
2023-01-25T07:26:33.704Z,15.57
2023-01-25T07:29:01.848Z,17.70
2023-01-25T07:31:29.557Z,12.90
2023-01-25T07:33:58.578Z,17.33
2023-01-25T07:36:27.699Z,15.02
2023-01-25T07:38:56.074Z,16.20
2023-01-25T07:41:24.699Z,17.58
2023-01-25T07:43:52.593Z,19.92
2023-01-25T07:46:20.533Z,16.27
2023-01-25T07:48:49.579Z,16.23
2023-01-25T07:51:27.919Z,15.73
2023-01-25T07:53:58.147Z,17.38
2023-01-25T07:56:27.644Z,15.65
2023-01-25T07:58:55.721Z,17.42
2023-01-25T08:01:25.425Z,14.95
2023-01-25T08:03:53.703Z,16.77
2023-01-25T08:06:27.271Z,18.27
2023-01-25T08:08:55.422Z,16.63
2023-01-25T08:11:25.907Z,18.48
2023-01-25T08:13:53.633Z,17.88
2023-01-25T08:16:22.774Z,17.45
2023-01-25T08:18:51.642Z,15.73
2023-01-25T08:21:19.713Z,17.95
2023-01-25T08:23:47.474Z,20.88
2023-01-25T08:26:16.819Z,18.20
2023-01-25T08:28:45.878Z,20.15
2023-01-25T08:31:14.996Z,23.58
2023-01-25T08:33:45.108Z,22.30
2023-01-25T08:36:12.896Z,15.80
2023-01-25T08:38:40.951Z,18.98
2023-01-25T08:41:09.694Z,19.08
2023-01-25T08:43:37.712Z,18.95
2023-01-25T08:46:07.477Z,19.20
2023-01-25T08:48:35.136Z,17.33
2023-01-25T08:51:03.203Z,20.05
2023-01-25T08:53:31.988Z,23.80
2023-01-25T08:56:04.485Z,21.85
2023-01-25T08:58:32.736Z,19.15
2023-01-25T09:01:04.607Z,21.60
2023-01-25T09:03:36.082Z,23.95
2023-01-25T09:06:04.189Z,19.77
2023-01-25T09:08:31.894Z,15.23
2023-01-25T09:11:02.412Z,14.60
2023-01-25T09:13:30.033Z,16.63
2023-01-25T09:16:01.765Z,18.83
2023-01-25T09:18:29.564Z,19.95
2023-01-25T09:20:58.788Z,20.92
2023-01-25T09:23:26.939Z,21.77
2023-01-25T09:25:58.221Z,19.25
2023-01-25T09:28:26.007Z,23.15
2023-01-25T09:31:18.882Z,19.88
2023-01-25T09:33:44.766Z,18.85
2023-01-25T09:36:14.876Z,14.70
2023-01-25T09:38:43.332Z,19.75
2023-01-25T09:41:19.300Z,22.58
2023-01-25T09:44:04.607Z,20.38
2023-01-25T09:46:41.958Z,21.27
2023-01-25T09:49:22.866Z,22.88
2023-01-25T09:52:13.897Z,28.55
2023-01-25T09:54:46.952Z,19.27
2023-01-25T09:57:17.168Z,22.88
2023-01-25T09:59:46.679Z,23.67
2023-01-25T10:02:25.008Z,25.05
2023-01-25T10:04:53.435Z,21.20
2023-01-25T10:07:25.245Z,25.00
2023-01-25T10:09:58.295Z,25.85
2023-01-25T10:12:26.830Z,24.70
2023-01-25T10:14:55.582Z,19.30
2023-01-25T10:17:28.735Z,20.45
2023-01-25T10:20:17.014Z,19.67
2023-01-25T10:22:48.562Z,17.70
2023-01-25T10:25:27.255Z,19.40
2023-01-25T10:28:04.896Z,18.38
2023-01-25T10:30:36.747Z,20.40
2023-01-25T10:33:12.557Z,20.45
2023-01-25T10:35:46.879Z,23.48
2023-01-25T10:38:19.687Z,20.52
2023-01-25T10:40:51.046Z,22.92
2023-01-25T10:43:20.196Z,20.40
2023-01-25T10:45:48.878Z,17.88
2023-01-25T10:48:19.771Z,20.23
2023-01-25T10:50:50.057Z,21.85
2023-01-25T10:53:34.397Z,24.25
2023-01-25T10:56:24.032Z,23.83
2023-01-25T10:58:54.461Z,24.77
2023-01-25T11:01:28.755Z,22.70
2023-01-25T11:03:56.614Z,18.35
2023-01-25T11:06:35.672Z,21.85
2023-01-25T11:09:36.678Z,18.77
2023-01-25T11:12:05.776Z,21.20
2023-01-25T11:14:34.385Z,24.10
2023-01-25T11:17:03.275Z,24.73
2023-01-25T11:19:34.646Z,23.45
2023-01-25T11:22:04.216Z,22.65
2023-01-25T11:24:34.723Z,26.77
2023-01-25T11:27:22.731Z,21.90
2023-01-25T11:30:09.964Z,26.02
2023-01-25T11:32:39.567Z,23.58
2023-01-25T11:35:13.769Z,23.17
2023-01-25T11:37:57.596Z,24.33
2023-01-25T11:40:32.939Z,26.92
2023-01-25T11:43:06.855Z,25.92
2023-01-25T11:46:01.809Z,24.48
2023-01-25T11:48:55.149Z,28.98
2023-01-25T11:51:27.354Z,30.20
2023-01-25T11:54:05.475Z,26.38
2023-01-25T11:56:45.577Z,21.95
2023-01-25T11:59:30.243Z,23.17
2023-01-25T12:02:09.914Z,27.02
2023-01-25T12:04:53.944Z,25.88
2023-01-25T12:07:28.640Z,25.50
2023-01-25T12:10:05.800Z,28.23
2023-01-25T12:12:41.964Z,25.88
2023-01-25T12:15:19.098Z,25.90
2023-01-25T12:17:57.765Z,25.75
2023-01-25T12:20:33.053Z,21.52
2023-01-25T12:23:14.596Z,25.52
2023-01-25T12:25:50.190Z,24.70
2023-01-25T12:28:22.677Z,26.90
2023-01-25T12:30:54.751Z,21.88
2023-01-25T12:33:26.641Z,21.38
2023-01-25T12:35:59.084Z,20.33
2023-01-25T12:38:29.136Z,22.00
2023-01-25T12:40:59.385Z,23.60
2023-01-25T12:43:33.656Z,27.15
2023-01-25T12:46:13.206Z,23.35
2023-01-25T12:48:46.141Z,22.45
2023-01-25T12:51:15.050Z,23.05
2023-01-25T12:53:47.010Z,21.33
2023-01-25T12:56:30.197Z,25.67
2023-01-25T12:59:03.414Z,25.10
2023-01-25T13:01:34.957Z,19.15
2023-01-25T13:04:11.857Z,22.48
2023-01-25T13:06:45.943Z,19.38
2023-01-25T13:09:21.221Z,22.50
2023-01-25T13:11:49.487Z,21.77
2023-01-25T13:14:29.297Z,23.73
2023-01-25T13:17:11.657Z,23.02
2023-01-25T13:19:43.432Z,24.83
2023-01-25T13:22:12.169Z,22.23
2023-01-25T13:25:09.327Z,25.05
2023-01-25T13:27:37.078Z,25.98
2023-01-25T13:30:27.535Z,19.67
2023-01-25T13:32:58.680Z,28.10
2023-01-25T13:35:34.915Z,14.53
2023-01-25T13:38:05.651Z,23.58
2023-01-25T13:40:35.835Z,22.50
2023-01-25T13:43:05.227Z,24.45
2023-01-25T13:45:36.540Z,24.17
2023-01-25T13:48:07.342Z,22.33
2023-01-25T13:50:38.041Z,20.05
2023-01-25T13:53:16.791Z,24.38
2023-01-25T13:55:46.440Z,25.38
2023-01-25T13:58:18.665Z,24.65
2023-01-25T14:00:55.807Z,28.27
2023-01-25T14:03:27.029Z,35.60
2023-01-25T14:05:57.073Z,21.67
2023-01-25T14:08:25.412Z,27.55
2023-01-25T14:10:53.885Z,30.83
2023-01-25T14:13:21.568Z,33.65
2023-01-25T14:15:58.303Z,34.78
2023-01-25T14:18:31.095Z,29.83
2023-01-25T14:21:13.074Z,27.33
2023-01-25T14:23:40.834Z,27.50
2023-01-25T14:26:20.138Z,29.55
2023-01-25T14:28:59.277Z,31.77
2023-01-25T14:31:34.142Z,30.15
2023-01-25T14:34:04.088Z,30.25
2023-01-25T14:36:35.032Z,30.17
2023-01-25T14:39:04.874Z,26.23
2023-01-25T14:41:34.097Z,26.42
2023-01-25T14:44:04.191Z,27.33
2023-01-25T14:46:34.619Z,29.48
2023-01-25T14:49:10.177Z,24.83
2023-01-25T14:51:42.390Z,27.17
2023-01-25T14:54:16.903Z,27.70
2023-01-25T14:56:46.014Z,29.10
2023-01-25T14:59:23.508Z,29.13
2023-01-25T15:01:54.219Z,31.65
2023-01-25T15:04:22.040Z,24.30
2023-01-25T15:06:50.981Z,31.02
2023-01-25T15:09:39.627Z,28.92
2023-01-25T15:12:29.037Z,23.00
2023-01-25T15:14:57.809Z,25.40
2023-01-25T15:17:40.556Z,26.70
2023-01-25T15:20:24.533Z,25.38
2023-01-25T15:22:52.233Z,26.83
2023-01-25T15:25:24.362Z,25.23
2023-01-25T15:27:52.395Z,26.30
2023-01-25T15:30:20.327Z,29.33
2023-01-25T15:32:49.348Z,18.23
2023-01-25T15:35:19.609Z,22.33
2023-01-25T15:37:49.242Z,23.65
2023-01-25T15:40:18.122Z,28.52
2023-01-25T15:42:45.752Z,31.48
2023-01-25T15:45:13.359Z,24.38
2023-01-25T15:47:41.036Z,25.08
2023-01-25T15:50:18.610Z,27.17
2023-01-25T15:52:46.455Z,29.08
2023-01-25T15:55:15.255Z,25.50
2023-01-25T15:57:44.069Z,29.92
2023-01-25T16:00:18.043Z,28.67
2023-01-25T16:02:45.703Z,27.75
2023-01-25T16:05:14.842Z,30.92
2023-01-25T16:07:43.928Z,25.38
2023-01-25T16:10:20.977Z,29.60
2023-01-25T16:12:48.857Z,29.05
2023-01-25T16:15:16.599Z,29.08
2023-01-25T16:17:44.393Z,31.08
2023-01-25T16:20:18.376Z,27.35
2023-01-25T16:22:46.400Z,28.25
2023-01-25T16:25:14.565Z,22.67
2023-01-25T16:27:42.183Z,23.67
2023-01-25T16:30:18.603Z,30.27
2023-01-25T16:32:46.708Z,29.52
2023-01-25T16:35:14.564Z,23.73
2023-01-25T16:37:43.531Z,26.73
2023-01-25T16:40:22.470Z,21.85
2023-01-25T16:42:50.430Z,23.55
2023-01-25T16:45:19.350Z,25.42
2023-01-25T16:47:47.641Z,26.52
2023-01-25T16:50:16.429Z,22.52
2023-01-25T16:52:46.091Z,24.65
2023-01-25T16:55:22.803Z,24.17
2023-01-25T16:57:51.589Z,23.95
2023-01-25T17:00:19.761Z,25.27
2023-01-25T17:02:58.544Z,26.23
2023-01-25T17:05:27.771Z,22.42
2023-01-25T17:07:56.894Z,24.35
2023-01-25T17:10:24.523Z,21.48
2023-01-25T17:12:52.217Z,22.45
2023-01-25T17:15:20.505Z,24.13
2023-01-25T17:17:49.986Z,23.02
2023-01-25T17:20:18.150Z,20.13
2023-01-25T17:22:50.959Z,25.90
2023-01-25T17:25:19.966Z,25.10
2023-01-25T17:27:47.684Z,22.88
2023-01-25T17:30:15.789Z,21.80
2023-01-25T17:32:43.475Z,21.05
2023-01-25T17:35:11.111Z,25.05
2023-01-25T17:37:41.086Z,25.50
2023-01-25T17:40:11.325Z,24.23
2023-01-25T17:42:40.542Z,23.48
2023-01-25T17:45:09.558Z,26.55
2023-01-25T17:47:37.308Z,21.75
2023-01-25T17:50:05.274Z,22.13
2023-01-25T17:52:32.908Z,21.13
2023-01-25T17:55:00.607Z,25.65
2023-01-25T17:57:31.269Z,28.02
2023-01-25T18:00:00.366Z,27.05
2023-01-25T18:02:28.007Z,27.88
2023-01-25T18:04:57.794Z,24.30
2023-01-25T18:07:25.512Z,24.02
2023-01-25T18:09:53.286Z,25.40
2023-01-25T18:12:20.945Z,23.80
2023-01-25T18:14:48.600Z,22.35
2023-01-25T18:20:14.170Z,25.67
2023-01-25T18:22:42.691Z,25.23
2023-01-25T18:25:29.584Z,19.73
2023-01-25T18:27:57.206Z,20.13
2023-01-25T18:30:33.055Z,24.05
2023-01-25T18:33:02.558Z,20.77
2023-01-25T18:35:30.669Z,19.80
2023-01-25T18:37:58.498Z,23.92
2023-01-25T18:40:26.087Z,28.08
2023-01-25T18:42:54.006Z,26.90
2023-01-25T18:45:21.815Z,24.48
2023-01-25T18:47:49.443Z,21.50
2023-01-25T18:50:18.682Z,28.27
2023-01-25T18:52:46.477Z,22.63
2023-01-25T18:55:14.334Z,21.70
2023-01-25T18:57:44.133Z,21.30
2023-01-25T19:00:18.441Z,26.10
2023-01-25T19:02:46.116Z,29.58
2023-01-25T19:05:14.339Z,29.77
2023-01-25T19:07:43.312Z,28.20
2023-01-25T19:10:12.463Z,27.58
2023-01-25T19:12:40.079Z,20.33
2023-01-25T19:15:09.252Z,21.15
2023-01-25T19:17:37.484Z,19.27
2023-01-25T19:20:06.444Z,17.80
2023-01-25T19:22:34.052Z,16.60
2023-01-25T19:25:04.852Z,24.67
2023-01-25T19:27:32.466Z,33.47
2023-01-25T19:30:00.224Z,37.33
2023-01-25T19:32:27.950Z,31.58
2023-01-25T19:34:55.660Z,43.47
2023-01-25T19:37:23.387Z,24.08
2023-01-25T19:39:51.438Z,22.15
2023-01-25T19:42:20.548Z,28.42
2023-01-25T19:44:48.801Z,29.48
2023-01-25T19:47:16.487Z,30.08
2023-01-25T19:49:44.263Z,19.70
2023-01-25T19:52:12.159Z,19.73
2023-01-25T19:54:39.802Z,19.35
2023-01-25T19:57:07.510Z,21.55
2023-01-25T19:59:36.594Z,20.58
2023-01-25T20:02:04.445Z,21.45
2023-01-25T20:04:32.649Z,21.17
2023-01-25T20:07:00.347Z,24.80
2023-01-25T20:09:28.675Z,26.20
2023-01-25T20:11:57.324Z,27.95
2023-01-25T20:14:24.990Z,21.83
2023-01-25T20:16:54.048Z,30.60
2023-01-25T20:19:21.705Z,27.98
2023-01-25T20:21:49.362Z,22.95
2023-01-25T20:24:17.217Z,16.67
2023-01-25T20:26:45.361Z,24.17
2023-01-25T20:29:13.589Z,22.35
2023-01-25T20:31:42.477Z,27.45
2023-01-25T20:34:15.038Z,23.90
2023-01-25T20:36:43.539Z,22.90
2023-01-25T20:39:13.634Z,22.63
2023-01-25T20:41:41.232Z,20.88
2023-01-25T20:44:10.037Z,15.77
2023-01-25T20:46:38.789Z,25.00
2023-01-25T20:49:07.368Z,25.45
2023-01-25T20:51:36.888Z,20.80
2023-01-25T20:54:04.698Z,22.58
2023-01-25T20:56:32.744Z,48.10
2023-01-25T20:59:00.404Z,45.00
2023-01-25T21:01:33.253Z,23.67
2023-01-25T21:04:00.845Z,44.85
2023-01-25T21:06:29.226Z,40.20
2023-01-25T21:08:59.271Z,28.35
2023-01-25T21:11:27.207Z,21.65
2023-01-25T21:13:54.937Z,26.95
2023-01-25T21:16:23.924Z,24.85
2023-01-25T21:18:54.458Z,25.02
2023-01-25T21:21:23.660Z,18.13
2023-01-25T21:23:51.582Z,19.73
2023-01-25T21:26:22.072Z,24.38
2023-01-25T21:28:49.899Z,20.92
2023-01-25T21:31:19.227Z,19.55
2023-01-25T21:33:47.524Z,20.70
2023-01-25T21:36:19.435Z,21.27
2023-01-25T21:38:48.714Z,22.08
2023-01-25T21:41:19.824Z,25.77
2023-01-25T21:44:06.996Z,27.03
2023-01-25T21:46:34.725Z,24.08
2023-01-25T21:49:21.083Z,26.70
2023-01-25T21:51:50.655Z,24.42
2023-01-25T21:54:22.261Z,22.58
2023-01-25T21:56:51.555Z,24.80
2023-01-25T21:59:20.588Z,24.13
2023-01-25T22:01:48.747Z,21.48
2023-01-25T22:04:17.778Z,24.83
2023-01-25T22:06:45.981Z,22.25
2023-01-25T22:09:14.478Z,19.70
2023-01-25T22:11:42.061Z,24.15
2023-01-25T22:14:09.729Z,22.23
2023-01-25T22:16:38.721Z,24.40
2023-01-25T22:19:06.429Z,33.50
2023-01-25T22:21:34.858Z,27.02
2023-01-25T22:24:05.168Z,23.98
2023-01-25T22:26:35.357Z,23.48
2023-01-25T22:29:02.969Z,30.85
2023-01-25T22:31:31.831Z,26.17
2023-01-25T22:34:01.290Z,24.70
2023-01-25T22:36:30.311Z,23.05
2023-01-25T22:39:00.165Z,25.40
2023-01-25T22:41:30.389Z,27.88
2023-01-25T22:43:58.617Z,28.65
2023-01-25T22:46:29.223Z,23.33
2023-01-25T22:48:57.212Z,23.77
2023-01-25T22:51:28.426Z,26.42
2023-01-25T22:53:56.261Z,16.38
2023-01-25T22:56:26.483Z,28.08
2023-01-25T22:58:54.144Z,23.27
2023-01-25T23:01:23.300Z,20.52
2023-01-25T23:03:51.743Z,27.08
2023-01-25T23:06:20.412Z,24.55
2023-01-25T23:08:49.834Z,23.73
2023-01-25T23:11:19.732Z,23.13
2023-01-25T23:14:07.553Z,21.88
2023-01-25T23:16:36.214Z,19.67
2023-01-25T23:19:03.928Z,26.30
2023-01-25T23:21:31.790Z,25.63
2023-01-25T23:24:02.229Z,23.38
2023-01-25T23:26:34.037Z,21.42
2023-01-25T23:29:01.654Z,26.27
2023-01-25T23:31:29.347Z,30.77
2023-01-25T23:33:59.085Z,25.17
2023-01-25T23:36:28.697Z,25.58
2023-01-25T23:38:56.873Z,27.20
2023-01-25T23:41:27.333Z,23.50
2023-01-25T23:43:56.018Z,22.20
2023-01-25T23:46:24.533Z,21.65
2023-01-25T23:48:52.369Z,22.90
2023-01-25T23:51:20.859Z,18.55
2023-01-25T23:53:48.733Z,25.10
2023-01-25T23:56:18.878Z,26.02
2023-01-25T23:58:48.032Z,29.38
